Time;durP1;ratioP1;P1;durP2;ratioP2;P2;SDS_P1;SDS_P2;PMS_P1;PMS_P2;Temp;Humidity;BMP_temperature;BMP_pressure;BME280_temperature;BME280_humidity;BME280_pressure;Samples;Min_cycle;Max_cycle;Signal;HPM_P1;HPM_P2
2021/08/07 00:01:13;;;;;;;8.80;4.47;;;;;;;17.08;73.98;100421.50;4970349;28;20223;-72
2021/08/07 00:03:41;;;;;;;9.47;3.50;;;;;;;17.15;73.13;100427.41;4967015;28;20229;-73
2021/08/07 00:06:07;;;;;;;9.47;3.70;;;;;;;16.92;74.91;100431.56;4968761;28;20217;-73
2021/08/07 00:08:34;;;;;;;8.63;3.93;;;;;;;16.84;75.26;100434.81;4969272;28;20246;-73
2021/08/07 00:11:00;;;;;;;6.20;3.43;;;;;;;16.70;75.03;100438.06;4970398;28;20220;-72
2021/08/07 00:13:26;;;;;;;8.97;3.87;;;;;;;16.37;76.37;100446.72;4969323;28;20346;-72
2021/08/07 00:15:53;;;;;;;7.77;4.10;;;;;;;16.25;77.08;100440.78;4969989;28;20213;-73
2021/08/07 00:18:19;;;;;;;9.63;4.00;;;;;;;16.41;77.00;100445.09;4969415;28;20291;-73
2021/08/07 00:20:47;;;;;;;7.60;4.00;;;;;;;16.52;76.51;100444.03;4968902;28;20245;-73
2021/08/07 00:23:13;;;;;;;7.47;3.83;;;;;;;16.47;76.25;100438.63;4970087;28;20208;-72
2021/08/07 00:25:40;;;;;;;7.97;3.37;;;;;;;16.42;76.57;100436.75;4967640;28;21059;-73
2021/08/07 00:28:06;;;;;;;6.27;3.43;;;;;;;16.42;76.34;100439.44;4968774;28;20280;-73
2021/08/07 00:30:33;;;;;;;5.50;3.67;;;;;;;16.35;76.89;100438.09;4969074;28;20288;-73
2021/08/07 00:33:00;;;;;;;6.30;3.97;;;;;;;16.30;76.46;100436.22;4969616;28;20271;-73
2021/08/07 00:35:27;;;;;;;7.80;3.60;;;;;;;16.37;76.83;100439.44;4967565;28;20225;-73
2021/08/07 00:37:55;;;;;;;6.77;3.60;;;;;;;16.36;76.39;100435.13;4969946;28;20212;-73
2021/08/07 00:40:21;;;;;;;6.83;3.53;;;;;;;16.39;76.79;100436.50;4969029;28;20209;-73
2021/08/07 00:42:47;;;;;;;9.37;4.83;;;;;;;16.42;76.37;100430.53;4969055;28;20220;-73
2021/08/07 00:45:14;;;;;;;6.97;4.10;;;;;;;16.36;76.58;100429.72;4967719;28;20217;-73
2021/08/07 00:47:40;;;;;;;6.40;3.70;;;;;;;16.41;76.38;100426.22;4967436;28;20665;-74
2021/08/07 00:50:08;;;;;;;6.40;3.50;;;;;;;16.39;76.36;100425.69;4965882;28;20246;-73
2021/08/07 00:52:34;;;;;;;5.63;3.70;;;;;;;16.54;75.85;100422.97;4969248;28;20233;-73
2021/08/07 00:55:03;;;;;;;9.70;4.40;;;;;;;16.25;76.18;100409.25;4966941;28;21071;-73
2021/08/07 00:57:30;;;;;;;7.67;3.87;;;;;;;16.18;76.78;100431.09;4967577;28;20241;-73
2021/08/07 00:59:56;;;;;;;9.97;3.87;;;;;;;16.33;76.29;100419.50;4968386;28;20224;-73
2021/08/07 01:02:24;;;;;;;9.60;4.03;;;;;;;16.24;76.25;100431.06;4969112;28;20300;-73
2021/08/07 01:04:56;;;;;;;6.93;3.80;;;;;;;16.38;75.72;100432.94;4967045;28;20233;-73
2021/08/07 01:07:29;;;;;;;7.47;3.87;;;;;;;16.11;76.79;100427.84;4967043;28;20217;-73
2021/08/07 01:10:06;;;;;;;6.10;3.73;;;;;;;16.04;76.90;100435.41;4968200;28;20259;-73
2021/08/07 01:12:37;;;;;;;6.17;3.23;;;;;;;16.10;76.41;100426.22;4968968;28;20221;-73
2021/08/07 01:15:04;;;;;;;9.07;3.90;;;;;;;16.14;75.79;100424.63;4968286;28;20613;-73
2021/08/07 01:17:30;;;;;;;7.63;3.50;;;;;;;15.89;76.40;100416.53;4966878;28;20217;-73
2021/08/07 01:20:09;;;;;;;9.77;3.43;;;;;;;15.98;75.78;100425.69;4965073;28;20288;-73
2021/08/07 01:22:42;;;;;;;5.40;2.90;;;;;;;15.96;75.88;100421.66;4969185;28;20300;-73
2021/08/07 01:25:12;;;;;;;6.63;3.50;;;;;;;16.05;75.69;100420.03;4970519;28;20213;-73
2021/08/07 01:27:40;;;;;;;5.60;3.10;;;;;;;16.14;75.00;100408.47;4970723;28;20247;-73
2021/08/07 01:30:11;;;;;;;6.80;2.80;;;;;;;16.17;74.88;100415.19;4972359;28;20241;-73
2021/08/07 01:32:39;;;;;;;4.90;3.07;;;;;;;16.13;74.57;100406.00;4972007;28;20296;-73
2021/08/07 01:35:06;;;;;;;6.03;3.53;;;;;;;16.10;75.02;100410.06;4971131;28;20604;-73
2021/08/07 01:37:33;;;;;;;5.20;3.10;;;;;;;16.11;74.67;100408.97;4970517;28;20217;-73
2021/08/07 01:39:59;;;;;;;8.10;3.40;;;;;;;16.19;74.46;100405.75;4970396;28;20213;-73
2021/08/07 01:42:27;;;;;;;4.67;3.07;;;;;;;16.19;73.94;100403.06;4972067;28;20217;-74
2021/08/07 01:44:55;;;;;;;8.13;3.13;;;;;;;16.21;74.14;100413.56;4973227;28;20600;-73
2021/08/07 01:47:24;;;;;;;8.63;3.60;;;;;;;16.21;74.10;100399.28;4971127;28;20723;-74
2021/08/07 01:49:57;;;;;;;7.87;3.17;;;;;;;16.14;74.29;100404.97;4972763;28;20636;-74
2021/08/07 01:52:27;;;;;;;7.20;3.13;;;;;;;15.97;74.91;100405.22;4971982;28;20237;-73
2021/08/07 01:54:57;;;;;;;7.20;3.73;;;;;;;16.05;74.64;100404.69;4972505;28;20214;-73
2021/08/07 01:57:26;;;;;;;7.07;3.20;;;;;;;16.05;74.59;100399.28;4970785;28;20240;-73
2021/08/07 01:59:52;;;;;;;5.13;2.83;;;;;;;15.93;74.85;100395.25;4973093;28;20222;-73
2021/08/07 02:02:20;;;;;;;5.87;3.47;;;;;;;15.89;75.02;100398.47;4970368;28;20599;-73
2021/08/07 02:04:47;;;;;;;5.90;2.90;;;;;;;15.96;74.79;100398.19;4971884;28;20280;-73
2021/08/07 02:07:14;;;;;;;6.53;2.97;;;;;;;15.88;75.05;100398.75;4969958;28;20213;-73
2021/08/07 02:09:41;;;;;;;7.53;3.43;;;;;;;15.73;75.31;100402.22;4969408;28;20242;-73
2021/08/07 02:12:08;;;;;;;7.23;2.80;;;;;;;15.78;75.32;100401.44;4968449;28;20673;-73
2021/08/07 02:14:36;;;;;;;4.60;2.60;;;;;;;15.77;75.21;100397.13;4970242;28;20213;-73
2021/08/07 02:17:03;;;;;;;6.00;3.07;;;;;;;15.80;75.20;100397.41;4969337;28;20221;-73
2021/08/07 02:19:31;;;;;;;8.07;3.53;;;;;;;15.73;75.38;100401.41;4970352;28;20260;-73
2021/08/07 02:21:59;;;;;;;5.17;2.80;;;;;;;15.80;74.88;100386.63;4972553;28;20221;-73
2021/08/07 02:24:25;;;;;;;6.60;3.30;;;;;;;15.69;75.55;100394.94;4971339;28;20208;-73
2021/08/07 02:26:52;;;;;;;4.53;3.33;;;;;;;15.67;75.71;100403.31;4971729;28;20225;-73
2021/08/07 02:29:19;;;;;;;7.47;3.60;;;;;;;15.72;75.56;100392.53;4970352;28;20794;-73
2021/08/07 02:31:46;;;;;;;7.47;3.17;;;;;;;15.53;76.07;100392.22;4969387;28;20307;-73
2021/08/07 02:34:13;;;;;;;7.77;3.13;;;;;;;15.52;76.11;100393.28;4969320;28;20233;-73
2021/08/07 02:36:41;;;;;;;10.40;3.70;;;;;;;15.57;76.08;100400.56;4970852;28;20572;-73
2021/08/07 02:39:08;;;;;;;14.53;3.73;;;;;;;15.48;76.32;100394.88;4971132;28;20225;-73
2021/08/07 02:41:34;;;;;;;7.40;3.67;;;;;;;15.49;76.30;100398.38;4967791;28;20209;-73
2021/08/07 02:44:01;;;;;;;7.60;3.53;;;;;;;15.54;76.31;100395.72;4969504;28;20267;-73
2021/08/07 02:46:29;;;;;;;10.83;3.27;;;;;;;15.45;76.08;100400.78;4971072;28;20244;-73
2021/08/07 02:48:56;;;;;;;9.40;3.37;;;;;;;15.33;76.86;100392.16;4967817;28;20774;-73
2021/08/07 02:51:22;;;;;;;11.27;3.90;;;;;;;15.36;76.66;100398.88;4970260;28;20623;-73
2021/08/07 02:53:50;;;;;;;9.13;3.67;;;;;;;15.41;76.66;100388.94;4968198;28;20787;-73
2021/08/07 02:56:17;;;;;;;8.87;3.80;;;;;;;15.41;76.42;100388.94;4971364;28;20635;-73
2021/08/07 02:58:44;;;;;;;8.33;3.93;;;;;;;15.26;76.99;100388.91;4971136;28;20217;-73
2021/08/07 03:01:10;;;;;;;11.27;4.23;;;;;;;15.24;76.87;100388.34;4970523;28;20659;-73
2021/08/07 03:03:36;;;;;;;8.43;3.97;;;;;;;15.31;76.77;100395.09;4968391;28;20229;-73
2021/08/07 03:06:03;;;;;;;8.30;3.60;;;;;;;15.45;76.12;100395.41;4970361;28;20269;-73
2021/08/07 03:08:29;;;;;;;7.80;3.37;;;;;;;15.30;76.39;100393.50;4969040;28;20280;-73
2021/08/07 03:10:57;;;;;;;10.83;3.50;;;;;;;15.31;76.35;100399.69;4968467;28;20237;-73
2021/08/07 03:13:24;;;;;;;9.70;3.50;;;;;;;15.32;76.33;100401.31;4972506;28;20738;-72
2021/08/07 03:15:50;;;;;;;10.83;4.37;;;;;;;15.12;77.15;100409.28;4971347;28;20217;-73
2021/08/07 03:18:16;;;;;;;10.43;4.53;;;;;;;15.15;77.22;100414.16;4968765;28;20250;-73
2021/08/07 03:20:43;;;;;;;8.07;4.33;;;;;;;15.09;77.43;100410.63;4969600;28;20222;-73
2021/08/07 03:23:09;;;;;;;10.90;3.90;;;;;;;15.14;77.19;100402.59;4968531;28;20221;-73
2021/08/07 03:25:36;;;;;;;7.03;3.67;;;;;;;15.21;76.93;100408.53;4969746;28;20264;-73
2021/08/07 03:28:05;;;;;;;10.57;4.17;;;;;;;15.24;76.67;100401.81;4968854;28;20631;-73
2021/08/07 03:30:32;;;;;;;9.07;4.47;;;;;;;15.21;77.07;100403.16;4965398;28;21080;-73
2021/08/07 03:32:58;;;;;;;7.17;4.00;;;;;;;15.07;77.59;100399.34;4968403;28;20213;-73
2021/08/07 03:35:25;;;;;;;14.03;4.50;;;;;;;15.26;77.14;100395.09;4968953;28;21234;-73
2021/08/07 03:37:51;;;;;;;9.40;3.97;;;;;;;15.14;77.59;100399.91;4968399;28;21173;-72
2021/08/07 03:40:18;;;;;;;10.90;4.30;;;;;;;15.15;77.81;100396.16;4968737;28;20660;-73
2021/08/07 03:42:44;;;;;;;13.57;4.93;;;;;;;15.02;78.24;100392.06;4970312;28;20544;-73
2021/08/07 03:45:12;;;;;;;8.27;4.47;;;;;;;15.02;78.40;100393.94;4969536;28;20216;-72
2021/08/07 03:47:46;;;;;;;10.80;4.23;;;;;;;15.20;77.75;100388.06;4970146;28;20222;-73
2021/08/07 03:50:13;;;;;;;10.47;5.27;;;;;;;15.21;78.03;100396.97;4966212;28;20763;-73
2021/08/07 03:52:39;;;;;;;10.13;5.67;;;;;;;15.17;78.02;100398.56;4965583;28;20314;-73
2021/08/07 03:55:07;;;;;;;7.80;4.70;;;;;;;15.22;77.79;100398.56;4966829;28;20209;-73
2021/08/07 03:57:33;;;;;;;11.27;5.10;;;;;;;15.32;77.54;100404.00;4964478;28;20594;-73
2021/08/07 04:00:00;;;;;;;12.03;5.00;;;;;;;15.27;77.91;100398.59;4965941;28;20240;-73
2021/08/07 04:02:27;;;;;;;7.73;4.67;;;;;;;15.41;77.45;100391.66;4968487;28;20210;-73
2021/08/07 04:04:54;;;;;;;8.47;4.83;;;;;;;15.27;77.98;100396.72;4967025;28;20240;-73
2021/08/07 04:07:20;;;;;;;11.27;4.70;;;;;;;15.46;77.25;100407.78;4966276;28;20224;-73
2021/08/07 04:09:46;;;;;;;11.60;5.00;;;;;;;15.36;77.74;100401.56;4967534;28;20233;-73
2021/08/07 04:12:13;;;;;;;11.20;5.23;;;;;;;15.36;77.91;100401.56;4971588;28;20229;-73
2021/08/07 04:14:40;;;;;;;10.83;4.97;;;;;;;15.33;78.13;100411.00;4967540;28;20209;-73
2021/08/07 04:17:06;;;;;;;10.63;4.83;;;;;;;15.30;78.16;100404.25;4968111;28;20750;-73
2021/08/07 04:19:34;;;;;;;12.53;5.00;;;;;;;15.28;78.49;100416.38;4968214;28;20233;-73
2021/08/07 04:22:00;;;;;;;11.83;4.93;;;;;;;15.20;78.97;100406.09;4969835;28;20220;-72
2021/08/07 04:24:26;;;;;;;12.97;5.80;;;;;;;15.16;79.22;100410.41;4968888;28;20213;-73
2021/08/07 04:26:53;;;;;;;10.00;4.67;;;;;;;15.08;80.02;100416.28;4966237;28;20225;-73
2021/08/07 04:29:19;;;;;;;11.80;5.40;;;;;;;15.05;80.36;100409.56;4967349;28;20284;-73
2021/08/07 04:31:50;;;;;;;10.82;6.70;;;;;;;15.17;79.99;100401.25;4977833;28;20474;-81
2021/08/07 04:34:17;;;;;;;11.43;6.53;;;;;;;15.32;79.56;100409.38;4980426;28;20225;-81
2021/08/07 04:36:45;;;;;;;12.50;5.77;;;;;;;15.47;79.21;100405.91;4982733;28;20217;-81
2021/08/07 04:39:11;;;;;;;9.53;5.83;;;;;;;15.30;79.68;100401.56;4983694;28;20548;-82
2021/08/07 04:41:40;;;;;;;12.00;5.93;;;;;;;15.42;79.69;100412.09;4983090;28;20209;-81
2021/08/07 04:44:06;;;;;;;12.63;6.00;;;;;;;15.39;79.64;100411.84;4983985;28;20213;-80
2021/08/07 04:46:33;;;;;;;11.30;5.93;;;;;;;15.57;79.03;100405.94;4984758;28;20228;-82
2021/08/07 04:49:00;;;;;;;14.17;5.60;;;;;;;15.68;78.70;100399.53;4984658;28;20265;-81
2021/08/07 04:51:27;;;;;;;10.33;5.70;;;;;;;15.50;79.36;100402.69;4984406;28;20245;-82
2021/08/07 04:53:54;;;;;;;9.30;5.67;;;;;;;15.47;79.56;100404.03;4983748;28;20212;-80
2021/08/07 04:56:21;;;;;;;9.70;5.77;;;;;;;15.54;79.13;100393.81;4983796;28;20561;-81
2021/08/07 04:58:47;;;;;;;11.80;6.43;;;;;;;15.58;79.67;100388.72;4986403;28;20539;-81
2021/08/07 05:01:14;;;;;;;11.13;6.20;;;;;;;15.81;78.61;100380.16;4988306;28;20225;-82
2021/08/07 05:03:40;;;;;;;9.93;5.80;;;;;;;15.68;79.14;100386.06;4985887;28;20225;-81
2021/08/07 05:06:07;;;;;;;10.77;5.77;;;;;;;15.98;78.25;100379.06;4986246;28;20217;-81
2021/08/07 05:08:36;;;;;;;10.47;6.00;;;;;;;15.93;78.20;100377.19;4987371;28;20240;-81
2021/08/07 05:11:04;;;;;;;10.13;5.73;;;;;;;15.88;78.24;100377.22;4988569;28;20240;-81
2021/08/07 05:13:32;;;;;;;9.33;5.70;;;;;;;15.87;78.37;100387.16;4985798;28;20217;-81
2021/08/07 05:15:59;;;;;;;8.03;5.87;;;;;;;15.89;78.29;100378.81;4986873;28;20241;-82
2021/08/07 05:18:25;;;;;;;10.33;5.60;;;;;;;15.84;78.77;100385.00;4984371;28;20221;-81
2021/08/07 05:20:52;;;;;;;10.37;6.43;;;;;;;16.07;78.00;100391.75;4983438;28;20217;-81
2021/08/07 05:23:18;;;;;;;10.93;5.83;;;;;;;16.31;77.61;100391.19;4987982;28;20220;-81
2021/08/07 05:25:45;;;;;;;11.63;6.47;;;;;;;16.40;77.08;100389.56;4987677;28;20243;-81
2021/08/07 05:28:13;;;;;;;11.07;5.60;;;;;;;16.19;77.83;100396.84;4984965;28;20217;-83
2021/08/07 05:30:39;;;;;;;11.47;6.30;;;;;;;16.01;78.10;100384.75;4985858;28;20237;-83
2021/08/07 05:33:06;;;;;;;13.17;5.90;;;;;;;16.29;77.98;100398.75;4987906;28;20235;-81
2021/08/07 05:35:32;;;;;;;10.57;5.80;;;;;;;16.42;77.12;100380.13;4986734;28;20232;-81
2021/08/07 05:37:59;;;;;;;12.27;5.63;;;;;;;16.49;76.59;100383.31;4988927;28;20222;-81
2021/08/07 05:40:25;;;;;;;7.67;5.13;;;;;;;16.41;77.00;100383.91;4985628;28;20667;-81
2021/08/07 05:42:52;;;;;;;9.67;5.83;;;;;;;16.26;77.11;100380.38;4987291;28;20221;-81
2021/08/07 05:45:19;;;;;;;8.47;4.90;;;;;;;16.39;77.14;100386.06;4990522;28;20677;-80
2021/08/07 05:47:46;;;;;;;8.53;5.43;;;;;;;16.31;77.36;100389.31;4985702;28;20212;-81
2021/08/07 05:50:12;;;;;;;9.33;5.37;;;;;;;16.35;77.28;100390.38;4985963;28;20276;-81
2021/08/07 05:52:39;;;;;;;12.33;5.50;;;;;;;16.36;77.13;100402.75;4988898;28;20237;-80
2021/08/07 05:55:07;;;;;;;9.63;5.20;;;;;;;16.12;77.87;100391.72;4988482;28;20221;-81
2021/08/07 05:57:34;;;;;;;7.37;5.00;;;;;;;16.30;77.36;100392.28;4987324;28;20244;-81
2021/08/07 06:00:01;;;;;;;8.60;5.27;;;;;;;16.21;77.29;100396.59;4984466;28;20222;-83
2021/08/07 06:02:32;;;;;;;7.07;4.87;;;;;;;16.38;76.66;100395.19;4983380;28;20760;-82
2021/08/07 06:04:59;;;;;;;11.27;5.40;;;;;;;16.18;77.13;100389.84;4983964;28;20232;-84
2021/08/07 06:07:25;;;;;;;11.53;4.83;;;;;;;16.11;77.02;100394.69;4983638;28;20210;-82
2021/08/07 06:09:51;;;;;;;11.83;5.07;;;;;;;16.37;76.49;100398.97;4987106;28;20286;-83
2021/08/07 06:12:18;;;;;;;8.97;5.40;;;;;;;16.68;75.63;100396.28;4986915;28;20223;-82
2021/08/07 06:14:45;;;;;;;8.70;4.90;;;;;;;17.16;73.89;100393.94;4982331;28;20228;-80
2021/08/07 06:17:11;;;;;;;8.00;4.47;;;;;;;17.57;71.81;100383.72;4987993;28;20807;-81
2021/08/07 06:19:39;;;;;;;11.30;5.60;;;;;;;17.79;71.54;100386.84;4986483;28;20625;-80
2021/08/07 06:22:05;;;;;;;9.77;4.90;;;;;;;17.63;71.44;100390.69;4982557;28;20212;-81
2021/08/07 06:24:32;;;;;;;5.53;4.07;;;;;;;17.93;70.60;100392.41;4985653;28;20679;-81
2021/08/07 06:26:59;;;;;;;12.13;4.87;;;;;;;17.87;70.96;100386.22;4983383;28;20216;-81
2021/08/07 06:29:26;;;;;;;12.10;4.33;;;;;;;17.84;70.48;100386.78;4986635;28;20215;-81
2021/08/07 06:31:52;;;;;;;9.27;4.40;;;;;;;17.91;70.00;100372.94;4986954;28;20227;-80
2021/08/07 06:34:19;;;;;;;8.27;3.73;;;;;;;17.34;72.28;100372.50;4982080;28;20286;-82
2021/08/07 06:36:46;;;;;;;6.77;3.90;;;;;;;17.38;72.22;100383.53;4981313;28;20211;-81
2021/08/07 06:39:13;;;;;;;8.47;3.93;;;;;;;17.83;71.65;100385.19;4981425;28;20216;-81
2021/08/07 06:41:39;;;;;;;7.10;4.03;;;;;;;18.17;69.99;100379.75;4985072;28;20335;-81
2021/08/07 06:44:06;;;;;;;8.77;3.80;;;;;;;18.33;69.21;100383.13;4983077;28;20219;-81
2021/08/07 06:46:32;;;;;;;5.67;3.60;;;;;;;17.95;69.62;100371.31;4979774;28;20218;-80
2021/08/07 06:48:59;;;;;;;11.23;4.30;;;;;;;17.89;70.49;100373.22;4984220;28;20230;-80
2021/08/07 06:51:25;;;;;;;10.33;4.00;;;;;;;17.92;70.59;100382.69;4980693;28;20307;-80
2021/08/07 06:53:53;;;;;;;7.97;3.83;;;;;;;18.34;69.13;100379.31;4977894;28;20298;-81
2021/08/07 06:56:20;;;;;;;7.30;3.00;;;;;;;18.71;67.17;100376.00;4979186;28;20245;-80
2021/08/07 06:58:46;;;;;;;10.37;4.23;;;;;;;18.67;67.76;100382.25;4982446;28;20221;-80
2021/08/07 07:01:12;;;;;;;7.27;3.47;;;;;;;18.44;68.93;100381.13;4980780;28;20295;-80
2021/08/07 07:03:39;;;;;;;6.50;2.90;;;;;;;18.70;66.72;100377.09;4976768;28;20243;-80
2021/08/07 07:06:06;;;;;;;8.37;3.30;;;;;;;18.41;67.02;100379.78;4977876;28;20783;-79
2021/08/07 07:08:32;;;;;;;6.30;2.87;;;;;;;18.74;66.49;100380.00;4981773;28;20884;-81
2021/08/07 07:11:00;;;;;;;9.30;4.17;;;;;;;18.36;65.50;100387.16;4977713;28;20242;-79
2021/08/07 07:13:26;;;;;;;7.43;3.07;;;;;;;18.34;67.47;100386.63;4978079;28;20224;-80
2021/08/07 07:15:53;;;;;;;7.93;3.07;;;;;;;18.56;66.19;100386.97;4977355;28;20220;-79
2021/08/07 07:18:20;;;;;;;7.67;2.80;;;;;;;18.21;65.88;100386.22;4979014;28;20220;-82
2021/08/07 07:20:46;;;;;;;7.33;3.23;;;;;;;18.36;66.58;100387.97;4979235;28;20233;-79
2021/08/07 07:23:13;;;;;;;4.73;2.70;;;;;;;19.03;64.38;100388.84;4979244;28;20243;-79
2021/08/07 07:25:39;;;;;;;6.70;2.47;;;;;;;18.91;64.58;100390.38;4979934;28;20235;-80
2021/08/07 07:28:07;;;;;;;6.47;2.17;;;;;;;19.27;63.58;100385.31;4976802;28;20232;-79
2021/08/07 07:30:33;;;;;;;8.27;2.40;;;;;;;19.28;61.51;100395.03;4978006;28;20219;-81
2021/08/07 07:33:00;;;;;;;6.47;2.83;;;;;;;18.70;63.68;100401.44;4976551;28;20239;-79
2021/08/07 07:35:26;;;;;;;6.53;2.00;;;;;;;19.08;62.21;100388.81;4977377;28;20241;-79
2021/08/07 07:37:53;;;;;;;4.30;1.93;;;;;;;19.06;62.85;100399.13;4978535;28;20221;-81
2021/08/07 07:40:20;;;;;;;6.80;2.47;;;;;;;19.13;63.08;100401.47;4978317;28;20277;-79
2021/08/07 07:42:46;;;;;;;5.53;2.03;;;;;;;19.81;61.34;100394.84;4976760;28;20323;-80
2021/08/07 07:45:14;;;;;;;5.70;2.43;;;;;;;20.40;58.96;100394.13;4978114;28;20713;-79
2021/08/07 07:47:41;;;;;;;5.17;1.80;;;;;;;19.71;60.17;100390.41;4974616;28;20292;-80
2021/08/07 07:50:08;;;;;;;6.30;2.40;;;;;;;18.93;62.90;100402.53;4979818;28;20228;-80
2021/08/07 07:52:35;;;;;;;5.43;2.00;;;;;;;19.62;61.17;100395.69;4977847;28;21522;-80
2021/08/07 07:55:01;;;;;;;7.00;2.03;;;;;;;19.95;59.02;100388.41;4979026;28;20334;-80
2021/08/07 07:57:28;;;;;;;8.40;1.90;;;;;;;19.84;58.41;100397.00;4976287;28;20248;-80
2021/08/07 07:59:54;;;;;;;7.07;2.53;;;;;;;19.84;59.19;100392.38;4978722;28;20216;-79
2021/08/07 08:02:22;;;;;;;5.30;1.97;;;;;;;19.90;57.61;100393.88;4975733;28;21066;-79
2021/08/07 08:04:48;;;;;;;7.70;1.83;;;;;;;19.34;58.41;100392.00;4977093;28;20682;-79
2021/08/07 08:07:15;;;;;;;6.37;2.17;;;;;;;19.82;59.54;100385.59;4979508;28;20217;-79
2021/08/07 08:09:41;;;;;;;6.57;2.17;;;;;;;19.38;57.08;100393.00;4977176;28;20217;-79
2021/08/07 08:12:08;;;;;;;6.27;1.57;;;;;;;19.11;59.18;100387.41;4977546;28;20246;-79
2021/08/07 08:14:34;;;;;;;6.47;1.90;;;;;;;19.36;58.76;100391.69;4976049;28;20212;-80
2021/08/07 08:17:01;;;;;;;7.10;1.70;;;;;;;19.61;58.47;100394.06;4974817;28;20307;-80
2021/08/07 08:19:28;;;;;;;11.93;2.63;;;;;;;19.49;58.88;100390.16;4976086;28;20243;-80
2021/08/07 08:21:55;;;;;;;6.23;2.03;;;;;;;19.64;58.79;100388.06;4975862;28;20261;-79
2021/08/07 08:24:21;;;;;;;4.90;1.70;;;;;;;19.58;59.72;100393.88;4975106;28;20301;-79
2021/08/07 08:26:48;;;;;;;3.60;1.70;;;;;;;19.48;58.82;100392.06;4976120;28;20238;-79
2021/08/07 08:29:14;;;;;;;7.33;1.80;;;;;;;20.14;57.29;100382.91;4976306;28;20219;-79
2021/08/07 08:31:41;;;;;;;7.50;2.00;;;;;;;20.13;57.72;100380.50;4976073;28;20645;-79
2021/08/07 08:34:07;;;;;;;6.00;1.67;;;;;;;20.38;54.93;100366.50;4978630;28;20232;-79
2021/08/07 08:36:35;;;;;;;7.30;2.10;;;;;;;20.61;55.74;100378.31;4976470;28;20213;-81
2021/08/07 08:39:02;;;;;;;5.37;1.60;;;;;;;20.47;54.80;100377.50;4979915;28;20219;-80
2021/08/07 08:41:28;;;;;;;4.63;1.70;;;;;;;21.07;55.56;100371.94;4981270;28;20227;-80
2021/08/07 08:43:56;;;;;;;4.73;1.90;;;;;;;20.29;55.31;100374.50;4980937;28;20229;-80
2021/08/07 08:46:23;;;;;;;6.73;2.07;;;;;;;20.23;56.47;100362.16;4977540;28;20251;-79
2021/08/07 08:48:49;;;;;;;7.10;1.97;;;;;;;20.58;55.55;100370.75;4975711;28;20228;-80
2021/08/07 08:51:16;;;;;;;5.27;1.53;;;;;;;20.20;56.45;100362.75;4980905;28;20236;-81
2021/08/07 08:53:45;;;;;;;6.53;2.10;;;;;;;20.63;55.25;100369.88;4978710;28;20336;-79
2021/08/07 08:56:11;;;;;;;7.43;2.30;;;;;;;20.27;56.92;100370.50;4979351;28;20210;-79
2021/08/07 08:58:38;;;;;;;7.67;1.73;;;;;;;20.60;53.22;100363.13;4978121;28;20223;-79
2021/08/07 09:01:05;;;;;;;4.90;1.40;;;;;;;19.82;56.68;100362.03;4975080;28;20750;-80
2021/08/07 09:03:31;;;;;;;7.60;1.97;;;;;;;19.69;55.94;100355.47;4978140;28;20273;-78
2021/08/07 09:05:58;;;;;;;6.53;1.63;;;;;;;20.23;56.27;100342.34;4975874;28;20216;-80
2021/08/07 09:08:25;;;;;;;3.80;1.40;;;;;;;20.13;55.59;100343.34;4983422;28;20235;-80
2021/08/07 09:11:15;;;;;;;3.53;1.70;;;;;;;20.81;53.22;100356.16;4975940;28;20208;-80
2021/08/07 09:13:41;;;;;;;3.17;1.40;;;;;;;20.18;54.65;100340.53;4974036;28;20215;-79
2021/08/07 09:16:08;;;;;;;4.80;1.50;;;;;;;20.86;52.98;100342.50;4976910;28;20658;-79
2021/08/07 09:18:35;;;;;;;5.67;1.97;;;;;;;21.14;52.65;100342.47;4973182;28;20260;-79
2021/08/07 09:21:11;;;;;;;4.13;1.20;;;;;;;20.67;51.42;100341.00;4975011;28;20298;-80
2021/08/07 09:23:38;;;;;;;3.17;1.60;;;;;;;20.28;54.30;100336.81;4974752;28;20298;-80
2021/08/07 09:26:18;;;;;;;5.87;1.73;;;;;;;20.17;54.18;100336.19;4976623;28;20663;-80
2021/08/07 09:28:45;;;;;;;4.67;1.47;;;;;;;20.25;54.58;100340.16;4972819;28;20217;-80
2021/08/07 09:31:12;;;;;;;4.67;1.33;;;;;;;20.54;53.38;100345.31;4975117;28;20752;-79
2021/08/07 09:33:39;;;;;;;4.17;1.63;;;;;;;19.64;56.74;100344.69;4976696;28;20237;-79
2021/08/07 09:36:05;;;;;;;3.87;1.30;;;;;;;20.26;55.05;100345.25;4973725;28;20216;-79
2021/08/07 09:38:32;;;;;;;3.53;1.30;;;;;;;20.37;54.34;100336.94;4972927;28;20558;-80
2021/08/07 09:40:59;;;;;;;3.07;1.30;;;;;;;20.45;55.02;100338.97;4973704;28;20226;-79
2021/08/07 09:43:30;;;;;;;4.53;1.47;;;;;;;20.44;55.40;100332.75;4977715;28;20651;-82
2021/08/07 09:46:05;;;;;;;4.23;1.60;;;;;;;20.59;54.91;100328.94;4977136;28;20680;-79
2021/08/07 09:48:34;;;;;;;4.93;1.30;;;;;;;20.70;56.11;100338.47;4979384;28;20227;-79
2021/08/07 09:51:00;;;;;;;2.60;1.30;;;;;;;20.73;53.32;100339.81;4979422;28;20217;-79
2021/08/07 09:53:28;;;;;;;6.03;1.80;;;;;;;20.19;55.21;100323.13;4977802;28;20969;-78
2021/08/07 09:56:02;;;;;;;5.07;1.40;;;;;;;20.82;53.73;100321.66;4978761;28;20227;-79
2021/08/07 09:58:30;;;;;;;4.37;1.47;;;;;;;20.72;54.88;100322.72;4979121;28;20220;-80
2021/08/07 10:00:57;;;;;;;2.73;1.50;;;;;;;21.55;52.84;100319.81;4979294;28;20215;-80
2021/08/07 10:03:27;;;;;;;5.97;1.97;;;;;;;21.20;53.51;100318.69;4979131;28;20770;-79
2021/08/07 10:05:53;;;;;;;3.70;1.30;;;;;;;21.14;53.14;100315.28;4979961;28;20813;-79
2021/08/07 10:08:19;;;;;;;3.13;1.63;;;;;;;21.07;54.06;100312.19;4978327;28;20213;-79
2021/08/07 10:10:49;;;;;;;3.53;1.30;;;;;;;21.33;54.71;100307.78;4981894;28;20210;-79
2021/08/07 10:13:16;;;;;;;3.77;1.87;;;;;;;22.14;51.19;100309.66;4980028;28;20248;-79
2021/08/07 10:15:47;;;;;;;3.78;2.00;;;;;;;23.06;49.29;100300.47;4978402;28;20458;-82
2021/08/07 10:18:14;;;;;;;3.37;1.43;;;;;;;22.84;51.00;100303.31;4982839;28;20240;-81
2021/08/07 10:20:42;;;;;;;4.63;1.90;;;;;;;23.65;47.99;100292.63;4981203;28;20301;-82
2021/08/07 10:23:09;;;;;;;4.33;1.90;;;;;;;23.32;46.49;100286.84;4983042;28;20216;-83
2021/08/07 10:25:36;;;;;;;5.13;1.90;;;;;;;23.26;50.63;100279.19;4985710;28;20213;-82
2021/08/07 10:28:04;;;;;;;3.93;1.43;;;;;;;23.38;47.58;100287.50;4981530;28;20309;-82
2021/08/07 10:30:35;;;;;;;3.73;1.40;;;;;;;24.77;45.46;100279.66;4980951;28;20222;-75
2021/08/07 10:33:03;;;;;;;3.07;1.60;;;;;;;25.41;40.70;100268.41;4965610;28;20250;-75
2021/08/07 10:35:30;;;;;;;4.27;1.53;;;;;;;25.01;42.19;100257.97;4970491;28;20239;-75
2021/08/07 10:37:58;;;;;;;4.63;1.60;;;;;;;24.47;43.42;100266.03;4967961;28;20261;-76
2021/08/07 10:40:25;;;;;;;3.43;1.10;;;;;;;24.03;43.36;100261.88;4970421;28;20211;-75
2021/08/07 10:42:52;;;;;;;3.53;1.30;;;;;;;23.05;46.07;100260.72;4967869;28;20795;-75
2021/08/07 10:45:19;;;;;;;2.87;1.20;;;;;;;22.93;46.58;100252.38;4969456;28;20213;-75
2021/08/07 10:47:47;;;;;;;3.63;1.30;;;;;;;23.02;47.89;100249.69;4969679;28;20271;-75
2021/08/07 10:50:39;;;;;;;2.47;1.23;;;;;;;23.08;47.67;100246.47;4970610;28;20233;-75
2021/08/07 10:53:26;;;;;;;3.87;1.30;;;;;;;24.50;46.41;100235.31;4969401;28;20543;-75
2021/08/07 10:55:53;;;;;;;2.83;1.50;;;;;;;24.63;46.02;100231.53;4969334;28;20210;-76
2021/08/07 10:58:33;;;;;;;3.03;1.50;;;;;;;25.12;44.89;100228.31;4970070;28;20770;-75
2021/08/07 11:01:26;;;;;;;2.63;1.33;;;;;;;25.50;41.52;100230.84;4969372;28;20292;-75
2021/08/07 11:04:06;;;;;;;3.73;1.27;;;;;;;24.40;44.35;100221.28;4969306;28;20287;-75
2021/08/07 11:06:47;;;;;;;2.30;1.33;;;;;;;23.33;45.86;100224.97;4968445;28;20250;-75
2021/08/07 11:09:17;;;;;;;2.60;1.30;;;;;;;23.70;45.68;100224.25;4970011;28;20287;-75
2021/08/07 11:11:44;;;;;;;3.53;1.33;;;;;;;23.71;46.26;100219.59;4966463;28;20218;-75
2021/08/07 11:14:43;;;;;;;3.53;1.47;;;;;;;22.35;49.86;100223.59;4963766;28;20214;-75
2021/08/07 11:17:44;;;;;;;4.10;1.70;;;;;;;22.14;49.89;100233.47;4965819;28;20217;-75
2021/08/07 11:20:13;;;;;;;3.73;1.40;;;;;;;21.97;51.35;100237.66;4936450;29;20241;-76
2021/08/07 11:23:17;;;;;;;3.07;1.50;;;;;;;21.56;51.96;100228.97;4962349;28;20265;-76
2021/08/07 11:25:55;;;;;;;3.20;1.33;;;;;;;21.42;51.27;100226.34;4968186;28;20224;-74
2021/08/07 11:28:22;;;;;;;2.63;1.57;;;;;;;21.44;52.95;100222.19;4967488;28;20220;-74